aviador You're here:

PHHI Decoded Metar

WHEELER AFB. in HI, USA OAHU ISL.
Report Time2018-01-16 18:56:00
UTC Time2018-01-16 19:30:47
Flight Rules vfr VFR
Wind330° at 05 kt
W.Decomp.*RWY 24: 1.0 kt HW 4.9 kt RCW
W.Rank330° ranks 7
Current wind is below 330° avg. (5.2)
Visibility9999 m
Phenomena:N/A
Clouds:Broken 030 Hf
Expected CloudBase > 1,200 ft AGL from Temp-Dew spread
Ceiling3,000 ft
Temp21°C (ISA +8)
Dew Point18°C (83% RH)
QNH1022 hPa
Density Alt1,706 ft
Elevation837 ft
Report Wrong Elevation
Raw Report
PHHI 161856Z AUTO 33005KT 10SM BKN030 21/18 A3018 RMK AO2 SLP215
T02100180 $=

Extra information for PHHI:More info

Metar Taf Metar & Taf Last 4 Metars F.Rules Stats Wind Profile Meteogram Temp Stats Airport Information Weather charts Add Link Nearby VenuesMetar ALERT Operation Metar Decoded Social comments